createdAt,value
2023-05-09T00:01:27.597Z,9.40
2023-05-09T00:03:54.580Z,10.10
2023-05-09T00:06:21.701Z,10.10
2023-05-09T00:08:48.632Z,9.57
2023-05-09T00:11:15.616Z,12.80
2023-05-09T00:13:44.138Z,10.23
2023-05-09T00:16:11.572Z,11.40
2023-05-09T00:18:42.283Z,7.90
2023-05-09T00:21:10.950Z,8.93
2023-05-09T00:23:38.553Z,9.23
2023-05-09T00:26:05.617Z,8.57
2023-05-09T00:28:33.149Z,9.93
2023-05-09T00:31:00.272Z,9.75
2023-05-09T00:33:27.387Z,8.75
2023-05-09T00:35:55.237Z,8.95
2023-05-09T00:38:25.158Z,9.38
2023-05-09T00:40:52.294Z,10.02
2023-05-09T00:43:19.260Z,10.00
2023-05-09T00:45:46.466Z,9.43
2023-05-09T00:48:15.275Z,9.10
2023-05-09T00:50:42.864Z,8.88
2023-05-09T00:53:10.278Z,8.25
2023-05-09T00:55:37.591Z,8.48
2023-05-09T00:58:05.043Z,8.60
2023-05-09T01:00:32.277Z,8.98
2023-05-09T01:02:59.306Z,8.57
2023-05-09T01:05:48.479Z,10.00
2023-05-09T01:08:27.874Z,11.60
2023-05-09T01:11:01.013Z,10.80
2023-05-09T01:13:38.234Z,10.00
2023-05-09T01:16:32.167Z,8.77
2023-05-09T01:19:09.147Z,11.02
2023-05-09T01:21:38.839Z,8.93
2023-05-09T01:24:05.996Z,8.55
2023-05-09T01:27:01.455Z,9.30
2023-05-09T01:29:36.622Z,8.80
2023-05-09T01:32:09.672Z,8.55
2023-05-09T01:34:41.025Z,7.47
2023-05-09T01:37:09.638Z,9.10
2023-05-09T01:39:41.319Z,9.00
2023-05-09T01:42:11.114Z,9.55
2023-05-09T01:44:41.169Z,7.90
2023-05-09T01:47:09.487Z,9.75
2023-05-09T01:49:38.383Z,9.77
2023-05-09T01:52:08.683Z,7.47
2023-05-09T01:54:37.214Z,7.68
2023-05-09T01:57:06.231Z,9.52
2023-05-09T01:59:34.762Z,10.98
2023-05-09T02:02:03.701Z,8.10
2023-05-09T02:04:31.577Z,8.43
2023-05-09T02:06:59.651Z,8.35
2023-05-09T02:09:27.299Z,9.55
2023-05-09T02:11:55.032Z,8.15
2023-05-09T02:14:22.158Z,9.77
2023-05-09T02:16:50.054Z,8.45
2023-05-09T02:19:17.520Z,8.60
2023-05-09T02:21:44.524Z,8.93
2023-05-09T02:24:11.747Z,8.02
2023-05-09T02:26:39.885Z,9.82
2023-05-09T02:29:08.223Z,8.30
2023-05-09T02:31:36.197Z,8.55
2023-05-09T02:34:04.986Z,9.45
2023-05-09T02:36:32.746Z,9.23
2023-05-09T02:39:01.303Z,9.38
2023-05-09T02:41:30.825Z,10.88
2023-05-09T02:43:57.785Z,7.95
2023-05-09T02:46:26.234Z,9.80
2023-05-09T02:48:53.692Z,9.60
2023-05-09T02:51:20.588Z,9.43
2023-05-09T02:53:47.511Z,9.80
2023-05-09T02:56:14.528Z,10.50
2023-05-09T02:58:41.475Z,8.48
2023-05-09T03:01:08.450Z,10.35
2023-05-09T03:03:35.525Z,12.95
2023-05-09T03:06:04.678Z,9.43
2023-05-09T03:08:31.783Z,10.23
2023-05-09T03:10:59.038Z,8.93
2023-05-09T03:13:26.372Z,9.70
2023-05-09T03:15:53.435Z,11.73
2023-05-09T03:18:20.445Z,11.10
2023-05-09T03:20:47.401Z,9.30
2023-05-09T03:23:14.941Z,9.43
2023-05-09T03:25:41.848Z,10.57
2023-05-09T03:28:08.813Z,9.10
2023-05-09T03:30:36.666Z,10.07
2023-05-09T03:33:06.344Z,12.45
2023-05-09T03:35:33.378Z,12.02
2023-05-09T03:38:00.628Z,11.25
2023-05-09T03:40:27.653Z,10.98
2023-05-09T03:43:05.047Z,10.85
2023-05-09T03:45:32.416Z,11.75
2023-05-09T03:47:59.430Z,12.77
2023-05-09T03:50:26.354Z,11.50
2023-05-09T03:52:57.072Z,10.43
2023-05-09T03:55:24.180Z,10.55
2023-05-09T03:57:51.245Z,12.82
2023-05-09T04:00:18.815Z,12.25
2023-05-09T04:02:53.502Z,15.32
2023-05-09T04:05:30.054Z,13.13
2023-05-09T04:07:58.112Z,13.27
2023-05-09T04:10:25.734Z,12.25
2023-05-09T04:12:54.047Z,12.60
2023-05-09T04:15:20.983Z,11.57
2023-05-09T04:17:48.008Z,11.90
2023-05-09T04:20:15.389Z,13.88
2023-05-09T04:22:44.842Z,13.68
2023-05-09T04:25:14.545Z,12.05
2023-05-09T04:27:42.291Z,14.18
2023-05-09T04:30:10.382Z,12.13
2023-05-09T04:32:38.666Z,12.68
2023-05-09T04:35:08.233Z,11.38
2023-05-09T04:37:40.078Z,13.63
2023-05-09T04:40:09.093Z,14.10
2023-05-09T04:42:48.317Z,12.65
2023-05-09T04:45:15.862Z,12.90
2023-05-09T04:47:43.244Z,14.48
2023-05-09T04:50:10.681Z,12.88
2023-05-09T04:52:37.585Z,11.10
2023-05-09T04:55:04.999Z,11.68
2023-05-09T04:57:36.866Z,10.18
2023-05-09T05:00:07.381Z,11.15
2023-05-09T05:02:35.331Z,13.60
2023-05-09T05:05:10.698Z,11.10
2023-05-09T05:07:40.521Z,12.15
2023-05-09T05:10:08.437Z,10.55
2023-05-09T05:12:36.407Z,10.65
2023-05-09T05:15:05.835Z,9.93
2023-05-09T05:17:33.392Z,12.05
2023-05-09T05:20:03.218Z,10.80
2023-05-09T05:22:32.797Z,11.20
2023-05-09T05:25:00.062Z,12.18
2023-05-09T05:27:27.400Z,14.07
2023-05-09T05:29:54.609Z,13.13
2023-05-09T05:32:21.663Z,12.60
2023-05-09T05:34:48.719Z,10.45
2023-05-09T05:37:15.839Z,11.18
2023-05-09T05:39:42.800Z,9.77
2023-05-09T05:42:09.788Z,11.52
2023-05-09T05:44:37.217Z,11.13
2023-05-09T05:47:04.456Z,10.18
2023-05-09T05:49:31.742Z,11.32
2023-05-09T05:51:58.956Z,11.30
2023-05-09T05:54:26.635Z,11.07
2023-05-09T05:56:54.728Z,11.02
2023-05-09T05:59:22.320Z,8.18
2023-05-09T06:01:49.372Z,10.25
2023-05-09T06:04:17.001Z,10.27
2023-05-09T06:06:44.244Z,10.13
2023-05-09T06:09:11.373Z,11.60
2023-05-09T06:11:39.148Z,10.30
2023-05-09T06:14:06.299Z,12.27
2023-05-09T06:16:33.487Z,10.23
2023-05-09T06:19:00.515Z,10.57
2023-05-09T06:21:27.525Z,11.88
2023-05-09T06:26:24.389Z,16.02
2023-05-09T06:28:51.332Z,10.60
2023-05-09T06:31:18.414Z,20.48
2023-05-09T06:33:45.385Z,20.48
2023-05-09T06:36:12.485Z,10.63
2023-05-09T06:38:39.480Z,10.13
2023-05-09T06:41:06.582Z,9.85
2023-05-09T06:43:33.677Z,10.32
2023-05-09T06:46:00.659Z,9.18
2023-05-09T06:48:27.702Z,9.15
2023-05-09T06:50:54.712Z,10.32
2023-05-09T06:53:21.812Z,9.45
2023-05-09T06:55:48.811Z,11.82
2023-05-09T06:58:15.853Z,10.20
2023-05-09T07:00:42.826Z,10.52
2023-05-09T07:03:10.612Z,9.35
2023-05-09T07:05:37.508Z,12.82
2023-05-09T07:08:04.810Z,9.48
2023-05-09T07:10:32.070Z,10.18
2023-05-09T07:12:59.085Z,10.00
2023-05-09T07:15:39.925Z,10.40
2023-05-09T07:18:08.535Z,11.77
2023-05-09T07:20:35.598Z,10.40
2023-05-09T07:23:06.023Z,10.35
2023-05-09T07:25:33.113Z,11.63
2023-05-09T07:28:00.028Z,10.70
2023-05-09T07:30:27.146Z,8.88
2023-05-09T07:33:04.853Z,12.07
2023-05-09T07:35:31.839Z,8.82
2023-05-09T07:37:58.725Z,8.80
2023-05-09T07:40:25.676Z,13.77
2023-05-09T07:42:55.076Z,10.43
2023-05-09T07:45:23.668Z,12.05
2023-05-09T07:47:51.093Z,9.00
2023-05-09T07:50:18.227Z,10.60
2023-05-09T07:52:45.551Z,9.27
2023-05-09T07:55:12.614Z,9.50
2023-05-09T07:57:40.089Z,9.68
2023-05-09T08:00:08.860Z,9.25
2023-05-09T08:02:40.737Z,8.32
2023-05-09T08:05:08.642Z,11.90
2023-05-09T08:07:35.712Z,8.48
2023-05-09T08:10:03.224Z,8.50
2023-05-09T08:12:30.119Z,8.63
2023-05-09T08:14:57.044Z,9.57
2023-05-09T08:17:23.948Z,9.48
2023-05-09T08:19:50.972Z,9.25
2023-05-09T08:22:18.984Z,7.57
2023-05-09T08:24:46.774Z,7.00
2023-05-09T08:27:14.384Z,10.02
2023-05-09T08:29:42.027Z,9.80
2023-05-09T08:32:09.500Z,8.07
2023-05-09T08:34:36.550Z,7.95
2023-05-09T08:37:04.721Z,7.53
2023-05-09T08:39:31.833Z,9.32
2023-05-09T08:42:00.561Z,10.45
2023-05-09T08:44:29.461Z,8.95
2023-05-09T08:46:59.760Z,8.25
2023-05-09T08:49:27.585Z,9.65
2023-05-09T08:51:55.528Z,15.43
2023-05-09T08:54:29.989Z,8.15
2023-05-09T08:56:57.890Z,8.35
2023-05-09T08:59:27.154Z,7.63
2023-05-09T09:01:54.759Z,8.02
2023-05-09T09:04:23.075Z,8.20
2023-05-09T09:06:51.516Z,7.90
2023-05-09T09:09:20.284Z,8.43
2023-05-09T09:11:48.033Z,7.82
2023-05-09T09:14:26.447Z,8.27
2023-05-09T09:16:55.950Z,8.43
2023-05-09T09:19:29.800Z,7.97
2023-05-09T09:21:59.614Z,8.68
2023-05-09T09:24:26.653Z,10.93
2023-05-09T09:26:53.623Z,9.90
2023-05-09T09:29:21.249Z,8.65
2023-05-09T09:31:53.052Z,8.60
2023-05-09T09:34:22.928Z,7.50
2023-05-09T09:36:50.483Z,8.68
2023-05-09T09:39:17.527Z,10.10
2023-05-09T09:41:45.062Z,9.35
2023-05-09T09:44:14.366Z,7.18
2023-05-09T09:46:52.266Z,9.35
2023-05-09T09:49:21.396Z,7.13
2023-05-09T09:51:52.100Z,7.43
2023-05-09T09:54:19.362Z,7.72
2023-05-09T09:56:48.108Z,9.82
2023-05-09T09:59:17.393Z,8.38
2023-05-09T10:02:04.858Z,9.50
2023-05-09T10:04:35.408Z,9.68
2023-05-09T10:07:07.748Z,10.63
2023-05-09T10:09:37.946Z,7.30
2023-05-09T10:12:07.439Z,7.15
2023-05-09T10:14:36.452Z,9.55
2023-05-09T10:17:05.639Z,10.40
2023-05-09T10:19:33.553Z,7.60
2023-05-09T10:22:08.212Z,7.03
2023-05-09T10:24:47.788Z,7.43
2023-05-09T10:27:19.292Z,6.60
2023-05-09T10:29:51.607Z,7.40
2023-05-09T10:32:27.071Z,8.02
2023-05-09T10:35:02.095Z,9.15
2023-05-09T10:37:30.602Z,8.25
2023-05-09T10:39:59.996Z,7.57
2023-05-09T10:42:28.394Z,9.02
2023-05-09T10:44:56.340Z,8.23
2023-05-09T10:47:26.974Z,9.32
2023-05-09T10:49:54.831Z,10.20
2023-05-09T10:52:22.786Z,8.60
2023-05-09T10:55:05.262Z,10.77
2023-05-09T10:57:32.554Z,9.13
2023-05-09T11:00:02.911Z,9.48
2023-05-09T11:02:32.236Z,8.55
2023-05-09T11:05:19.187Z,8.73
2023-05-09T11:07:46.315Z,9.07
2023-05-09T11:10:18.526Z,9.63
2023-05-09T11:12:58.272Z,10.55
2023-05-09T11:15:27.484Z,10.20
2023-05-09T11:18:10.737Z,9.80
2023-05-09T11:20:45.071Z,9.43
2023-05-09T11:23:12.369Z,8.77
2023-05-09T11:25:40.294Z,8.73
2023-05-09T11:28:07.279Z,10.27
2023-05-09T11:30:42.558Z,9.38
2023-05-09T11:36:19.152Z,12.63
2023-05-09T11:38:47.570Z,10.85
2023-05-09T11:41:15.606Z,10.18
2023-05-09T11:43:44.716Z,10.38
2023-05-09T11:46:12.890Z,12.35
2023-05-09T11:48:42.239Z,9.98
2023-05-09T11:51:18.113Z,13.05
2023-05-09T11:53:47.059Z,14.00
2023-05-09T11:56:14.707Z,9.55
2023-05-09T11:58:42.253Z,14.05
2023-05-09T12:01:12.385Z,11.80
2023-05-09T12:03:45.996Z,10.93
2023-05-09T12:06:18.260Z,11.38
2023-05-09T12:08:46.297Z,12.50
2023-05-09T12:11:14.080Z,11.77
2023-05-09T12:13:48.851Z,13.27
2023-05-09T12:16:17.119Z,11.63
2023-05-09T12:18:48.832Z,10.52
2023-05-09T12:21:16.567Z,12.25
2023-05-09T12:23:44.274Z,12.20
2023-05-09T12:26:11.577Z,11.40
2023-05-09T12:28:39.232Z,12.77
2023-05-09T12:31:06.989Z,11.73
2023-05-09T12:33:34.587Z,12.68
2023-05-09T12:36:09.532Z,9.85
2023-05-09T12:38:37.161Z,11.32
2023-05-09T12:41:15.490Z,8.85
2023-05-09T12:43:50.855Z,8.55
2023-05-09T12:46:20.047Z,8.50
2023-05-09T12:48:49.919Z,9.98
2023-05-09T12:51:21.040Z,10.52
2023-05-09T12:53:48.481Z,9.98
2023-05-09T12:56:20.469Z,11.98
2023-05-09T12:58:55.496Z,8.85
2023-05-09T13:01:29.724Z,13.43
2023-05-09T13:04:04.259Z,13.63
2023-05-09T13:06:31.306Z,10.32
2023-05-09T13:09:02.883Z,10.63
2023-05-09T13:11:30.191Z,10.93
2023-05-09T13:13:57.512Z,10.07
2023-05-09T13:16:24.805Z,11.02
2023-05-09T13:18:51.843Z,11.32
2023-05-09T13:21:19.351Z,9.93
2023-05-09T13:23:46.276Z,10.95
2023-05-09T13:26:13.306Z,13.77
2023-05-09T13:28:40.516Z,13.32
2023-05-09T13:31:08.059Z,14.95
2023-05-09T13:33:35.176Z,14.23
2023-05-09T13:36:02.164Z,16.60
2023-05-09T13:38:31.025Z,25.58
2023-05-09T13:40:58.365Z,15.10
2023-05-09T13:43:25.444Z,14.77
2023-05-09T13:45:52.431Z,14.90
2023-05-09T13:48:19.406Z,12.95
2023-05-09T13:50:46.843Z,13.02
2023-05-09T13:53:13.831Z,13.50
2023-05-09T13:55:40.804Z,14.38
2023-05-09T13:58:07.751Z,13.27
2023-05-09T14:00:35.043Z,14.75
2023-05-09T14:03:03.123Z,13.82
2023-05-09T14:05:33.963Z,15.18
2023-05-09T14:08:03.871Z,13.80
2023-05-09T14:10:30.768Z,13.82
2023-05-09T14:12:58.181Z,13.57
2023-05-09T14:15:25.202Z,10.85
2023-05-09T14:17:52.246Z,11.93
2023-05-09T14:20:19.386Z,15.10
2023-05-09T14:22:46.549Z,12.63
2023-05-09T14:25:13.470Z,13.10
2023-05-09T14:27:40.388Z,12.95
2023-05-09T14:30:08.661Z,13.70
2023-05-09T14:32:35.673Z,13.75
2023-05-09T14:35:02.881Z,12.40
2023-05-09T14:37:30.597Z,13.85
2023-05-09T14:39:57.621Z,12.60
2023-05-09T14:42:24.542Z,13.35
2023-05-09T14:44:51.512Z,12.25
2023-05-09T14:47:18.423Z,15.55
2023-05-09T14:49:45.420Z,13.57
2023-05-09T14:52:13.746Z,25.65
2023-05-09T14:54:41.062Z,12.93
2023-05-09T14:57:08.404Z,12.88
2023-05-09T14:59:37.020Z,11.55
2023-05-09T15:02:04.231Z,10.70
2023-05-09T15:04:31.641Z,11.75
2023-05-09T15:06:59.350Z,12.70
2023-05-09T15:09:26.806Z,14.63
2023-05-09T15:11:54.856Z,13.35
2023-05-09T15:14:22.047Z,13.07
2023-05-09T15:17:07.881Z,12.23
2023-05-09T15:19:36.386Z,12.50
2023-05-09T15:22:04.753Z,13.30
2023-05-09T15:24:31.866Z,10.82
2023-05-09T15:26:59.026Z,15.73
2023-05-09T15:29:26.252Z,11.55
2023-05-09T15:31:55.099Z,12.48
2023-05-09T15:34:22.821Z,13.90
2023-05-09T15:36:49.956Z,15.55
2023-05-09T15:39:17.223Z,14.07
2023-05-09T15:41:44.145Z,17.33
2023-05-09T15:44:11.595Z,13.30
2023-05-09T15:46:38.553Z,14.10
2023-05-09T15:49:05.521Z,13.27
2023-05-09T15:51:32.605Z,14.45
2023-05-09T15:53:59.957Z,11.70
2023-05-09T15:56:26.902Z,13.88
2023-05-09T15:58:53.921Z,12.02
2023-05-09T16:01:21.293Z,14.55
2023-05-09T16:03:48.403Z,14.30
2023-05-09T16:06:15.545Z,12.95
2023-05-09T16:08:42.561Z,13.38
2023-05-09T16:11:10.242Z,16.60
2023-05-09T16:13:37.394Z,15.10
2023-05-09T16:16:04.983Z,14.75
2023-05-09T16:18:31.978Z,13.98
2023-05-09T16:20:59.649Z,14.40
2023-05-09T16:23:26.741Z,15.48
2023-05-09T16:25:53.832Z,14.27
2023-05-09T16:28:23.470Z,16.73
2023-05-09T16:30:53.917Z,21.55
2023-05-09T16:33:20.938Z,15.73
2023-05-09T16:35:48.006Z,16.40
2023-05-09T16:38:15.134Z,14.95
2023-05-09T16:40:42.213Z,15.68
2023-05-09T16:43:09.220Z,14.63
2023-05-09T16:45:36.249Z,13.70
2023-05-09T16:48:03.243Z,16.88
2023-05-09T16:50:30.317Z,17.20
2023-05-09T16:52:57.298Z,15.73
2023-05-09T16:55:26.693Z,17.80
2023-05-09T16:57:53.613Z,17.83
2023-05-09T17:00:21.767Z,15.00
2023-05-09T17:02:48.760Z,15.23
2023-05-09T17:05:15.767Z,30.42
2023-05-09T17:07:42.738Z,21.40
2023-05-09T17:10:10.138Z,16.42
2023-05-09T17:12:38.810Z,17.05
2023-05-09T17:15:09.882Z,15.50
2023-05-09T17:17:37.339Z,16.05
2023-05-09T17:20:04.623Z,14.73
2023-05-09T17:22:32.035Z,15.50
2023-05-09T17:24:59.074Z,13.20
2023-05-09T17:27:27.053Z,15.68
2023-05-09T17:29:54.063Z,12.80
2023-05-09T17:32:44.716Z,14.30
2023-05-09T17:35:12.448Z,13.32
2023-05-09T17:37:39.627Z,14.13
2023-05-09T17:40:07.936Z,16.15
2023-05-09T17:42:34.952Z,16.98
2023-05-09T17:45:01.974Z,13.00
2023-05-09T17:47:29.255Z,13.65
2023-05-09T17:49:56.222Z,14.60
2023-05-09T17:52:23.195Z,15.20
2023-05-09T17:54:50.123Z,15.85
2023-05-09T17:57:17.490Z,15.73
2023-05-09T17:59:46.198Z,14.43
2023-05-09T18:02:15.007Z,16.35
2023-05-09T18:04:41.952Z,14.57
2023-05-09T18:07:09.004Z,17.95
2023-05-09T18:09:36.013Z,14.52
2023-05-09T18:12:03.551Z,19.50
2023-05-09T18:14:30.473Z,17.20
2023-05-09T18:16:57.407Z,16.95
2023-05-09T18:19:24.308Z,18.33
2023-05-09T18:21:51.252Z,19.10
2023-05-09T18:24:20.450Z,16.17
2023-05-09T18:26:50.303Z,15.05
2023-05-09T18:29:17.415Z,17.80
2023-05-09T18:31:44.450Z,16.35
2023-05-09T18:34:11.675Z,17.92
2023-05-09T18:36:38.615Z,20.25
2023-05-09T18:39:05.572Z,17.00
2023-05-09T18:41:33.874Z,21.30
2023-05-09T18:44:00.978Z,20.80
2023-05-09T18:46:29.931Z,18.27
2023-05-09T18:48:57.060Z,18.52
2023-05-09T18:51:25.280Z,18.50
2023-05-09T18:53:52.408Z,17.63
2023-05-09T18:56:22.126Z,18.13
2023-05-09T18:58:52.390Z,19.02
2023-05-09T19:01:19.593Z,19.45
2023-05-09T19:03:47.587Z,16.98
2023-05-09T19:06:16.469Z,18.33
2023-05-09T19:08:43.778Z,20.20
2023-05-09T19:11:11.724Z,20.45
2023-05-09T19:13:40.801Z,17.50
2023-05-09T19:16:08.837Z,16.63
2023-05-09T19:18:35.908Z,17.33
2023-05-09T19:21:02.926Z,17.23
2023-05-09T19:23:30.002Z,17.63
2023-05-09T19:25:56.981Z,17.77
2023-05-09T19:28:23.976Z,18.02
2023-05-09T19:30:51.031Z,17.35
2023-05-09T19:33:19.411Z,17.60
2023-05-09T19:35:46.615Z,15.10
2023-05-09T19:38:13.588Z,16.15
2023-05-09T19:40:42.054Z,14.48
2023-05-09T19:43:08.975Z,14.40
2023-05-09T19:45:35.907Z,13.45
2023-05-09T19:48:02.862Z,14.88
2023-05-09T19:50:31.004Z,13.93
2023-05-09T19:52:58.442Z,13.88
2023-05-09T19:55:25.552Z,14.90
2023-05-09T19:57:52.437Z,14.55
2023-05-09T20:00:19.708Z,14.02
2023-05-09T20:02:47.143Z,13.75
2023-05-09T20:05:14.153Z,13.40
2023-05-09T20:07:41.213Z,13.95
2023-05-09T20:10:08.504Z,15.75
2023-05-09T20:12:35.851Z,14.77
2023-05-09T20:15:03.025Z,13.15
2023-05-09T20:17:29.997Z,12.68
2023-05-09T20:19:57.480Z,14.85
2023-05-09T20:22:24.406Z,12.60
2023-05-09T20:24:51.259Z,14.90
2023-05-09T20:27:18.120Z,13.82
2023-05-09T20:29:45.245Z,14.02
2023-05-09T20:32:12.249Z,12.80
2023-05-09T20:34:39.224Z,13.52
2023-05-09T20:37:06.112Z,16.00
2023-05-09T20:39:32.967Z,13.63
2023-05-09T20:42:02.404Z,13.40
2023-05-09T20:44:29.564Z,15.25
2023-05-09T20:46:56.440Z,13.60
2023-05-09T20:49:24.209Z,14.77
2023-05-09T20:51:51.110Z,15.32
2023-05-09T20:54:18.164Z,12.10
2023-05-09T20:56:45.016Z,12.98
2023-05-09T20:59:12.145Z,12.65
2023-05-09T21:01:40.389Z,13.80
2023-05-09T21:04:08.420Z,11.32
2023-05-09T21:06:36.358Z,12.43
2023-05-09T21:09:03.961Z,13.63
2023-05-09T21:11:30.940Z,14.68
2023-05-09T21:13:57.815Z,12.18
2023-05-09T21:16:24.673Z,14.98
2023-05-09T21:19:10.265Z,13.13
2023-05-09T21:21:37.302Z,13.85
2023-05-09T21:24:08.894Z,13.57
2023-05-09T21:26:36.385Z,12.98
2023-05-09T21:29:03.313Z,13.60
2023-05-09T21:31:30.235Z,12.52
2023-05-09T21:33:59.055Z,14.25
2023-05-09T21:36:25.970Z,13.02
2023-05-09T21:38:52.891Z,13.65
2023-05-09T21:41:21.924Z,15.35
2023-05-09T21:43:48.936Z,11.55
2023-05-09T21:46:15.841Z,12.98
2023-05-09T21:48:42.709Z,12.15
2023-05-09T21:51:09.553Z,11.95
2023-05-09T21:53:36.648Z,13.80
2023-05-09T21:56:03.726Z,13.93
2023-05-09T21:58:30.669Z,12.23
2023-05-09T22:00:57.600Z,12.90
2023-05-09T22:03:24.697Z,12.10
2023-05-09T22:05:51.622Z,12.43
2023-05-09T22:08:18.489Z,11.30
2023-05-09T22:10:45.377Z,11.88
2023-05-09T22:13:12.296Z,12.95
2023-05-09T22:15:39.217Z,11.45
2023-05-09T22:18:06.205Z,11.68
2023-05-09T22:20:33.133Z,11.30
2023-05-09T22:23:00.204Z,11.98
2023-05-09T22:25:27.096Z,12.00
2023-05-09T22:27:55.057Z,13.90
2023-05-09T22:30:21.987Z,13.82
2023-05-09T22:32:48.899Z,12.25
2023-05-09T22:35:15.864Z,13.40
2023-05-09T22:37:43.036Z,12.32
2023-05-09T22:40:10.298Z,16.60
2023-05-09T22:42:37.425Z,14.00
2023-05-09T22:45:05.272Z,11.93
2023-05-09T22:47:32.538Z,13.80
2023-05-09T22:49:59.581Z,13.48
2023-05-09T22:52:26.734Z,14.85
2023-05-09T22:54:53.720Z,14.45
2023-05-09T22:57:23.632Z,13.65
2023-05-09T22:59:51.132Z,13.68
2023-05-09T23:02:18.231Z,14.68
2023-05-09T23:04:45.365Z,14.10
2023-05-09T23:07:12.437Z,16.35
2023-05-09T23:09:39.396Z,14.70
2023-05-09T23:12:07.004Z,16.33
2023-05-09T23:14:33.922Z,15.43
2023-05-09T23:17:00.879Z,14.95
2023-05-09T23:19:27.835Z,16.08
2023-05-09T23:21:54.792Z,20.60
2023-05-09T23:24:21.782Z,19.05
2023-05-09T23:26:48.650Z,17.25
2023-05-09T23:29:15.671Z,16.58
2023-05-09T23:31:43.366Z,16.75
2023-05-09T23:34:10.355Z,19.42
2023-05-09T23:36:37.283Z,16.95
2023-05-09T23:39:04.352Z,15.90
2023-05-09T23:41:31.273Z,19.52
2023-05-09T23:43:59.410Z,18.67
2023-05-09T23:46:27.182Z,19.63
2023-05-09T23:48:54.136Z,19.67
2023-05-09T23:51:22.530Z,20.10
2023-05-09T23:53:49.769Z,18.40
2023-05-09T23:56:16.801Z,18.05
2023-05-09T23:58:43.765Z,17.70
